sensor_id;sensor_type;location;lat;lon;timestamp;temperature;humidity
12948;DHT22;6539;49.476;8.484;2023-11-22T00:00:46;6.80;99.90
12948;DHT22;6539;49.476;8.484;2023-11-22T00:03:32;6.80;99.90
12948;DHT22;6539;49.476;8.484;2023-11-22T00:06:18;6.70;99.90
12948;DHT22;6539;49.476;8.484;2023-11-22T00:09:07;6.70;99.90
12948;DHT22;6539;49.476;8.484;2023-11-22T00:11:53;6.60;99.90
12948;DHT22;6539;49.476;8.484;2023-11-22T00:14:41;6.60;99.90
12948;DHT22;6539;49.476;8.484;2023-11-22T00:17:28;6.60;99.90
12948;DHT22;6539;49.476;8.484;2023-11-22T00:20:14;6.50;99.90
12948;DHT22;6539;49.476;8.484;2023-11-22T00:23:00;6.40;99.90
12948;DHT22;6539;49.476;8.484;2023-11-22T00:25:46;6.40;99.90
12948;DHT22;6539;49.476;8.484;2023-11-22T00:28:34;6.50;99.90
12948;DHT22;6539;49.476;8.484;2023-11-22T00:31:20;6.40;99.90
12948;DHT22;6539;49.476;8.484;2023-11-22T00:34:06;6.40;99.90
12948;DHT22;6539;49.476;8.484;2023-11-22T00:36:54;6.30;99.90
12948;DHT22;6539;49.476;8.484;2023-11-22T00:39:41;6.30;99.90
12948;DHT22;6539;49.476;8.484;2023-11-22T00:42:29;6.20;99.90
12948;DHT22;6539;49.476;8.484;2023-11-22T00:45:15;6.10;99.90
12948;DHT22;6539;49.476;8.484;2023-11-22T00:48:04;6.10;99.90
12948;DHT22;6539;49.476;8.484;2023-11-22T00:50:50;6.10;99.90
12948;DHT22;6539;49.476;8.484;2023-11-22T00:53:36;6.00;99.90
12948;DHT22;6539;49.476;8.484;2023-11-22T00:56:25;6.00;99.90
12948;DHT22;6539;49.476;8.484;2023-11-22T00:59:11;6.00;99.90
12948;DHT22;6539;49.476;8.484;2023-11-22T01:01:57;6.00;99.90
12948;DHT22;6539;49.476;8.484;2023-11-22T01:04:44;6.00;99.90
12948;DHT22;6539;49.476;8.484;2023-11-22T01:07:32;6.00;99.90
12948;DHT22;6539;49.476;8.484;2023-11-22T01:10:23;6.00;99.90
12948;DHT22;6539;49.476;8.484;2023-11-22T01:13:09;6.00;99.90
12948;DHT22;6539;49.476;8.484;2023-11-22T01:15:55;6.00;99.90
12948;DHT22;6539;49.476;8.484;2023-11-22T01:18:41;6.00;99.90
12948;DHT22;6539;49.476;8.484;2023-11-22T01:21:29;5.90;99.90
12948;DHT22;6539;49.476;8.484;2023-11-22T01:24:15;5.90;99.90
12948;DHT22;6539;49.476;8.484;2023-11-22T01:27:01;5.90;99.90
12948;DHT22;6539;49.476;8.484;2023-11-22T01:29:47;5.80;99.90
12948;DHT22;6539;49.476;8.484;2023-11-22T01:32:33;5.70;99.90
12948;DHT22;6539;49.476;8.484;2023-11-22T01:35:20;5.70;99.90
12948;DHT22;6539;49.476;8.484;2023-11-22T01:38:10;5.70;99.90
12948;DHT22;6539;49.476;8.484;2023-11-22T01:40:56;5.50;99.90
12948;DHT22;6539;49.476;8.484;2023-11-22T01:43:46;5.50;99.90
12948;DHT22;6539;49.476;8.484;2023-11-22T01:46:32;5.50;99.90
12948;DHT22;6539;49.476;8.484;2023-11-22T01:49:21;5.50;99.90
12948;DHT22;6539;49.476;8.484;2023-11-22T01:52:10;5.40;99.90
12948;DHT22;6539;49.476;8.484;2023-11-22T01:54:57;5.40;99.90
12948;DHT22;6539;49.476;8.484;2023-11-22T01:57:43;5.30;99.90
12948;DHT22;6539;49.476;8.484;2023-11-22T02:00:50;5.30;99.90
12948;DHT22;6539;49.476;8.484;2023-11-22T02:03:38;5.20;99.90
12948;DHT22;6539;49.476;8.484;2023-11-22T02:06:27;5.20;99.90
12948;DHT22;6539;49.476;8.484;2023-11-22T02:09:16;5.20;99.90
12948;DHT22;6539;49.476;8.484;2023-11-22T02:12:05;5.20;99.90
12948;DHT22;6539;49.476;8.484;2023-11-22T02:14:51;5.10;99.90
12948;DHT22;6539;49.476;8.484;2023-11-22T02:17:39;5.10;99.90
12948;DHT22;6539;49.476;8.484;2023-11-22T02:20:28;5.10;99.90
12948;DHT22;6539;49.476;8.484;2023-11-22T02:23:14;5.00;99.90
12948;DHT22;6539;49.476;8.484;2023-11-22T02:26:00;5.00;99.90
12948;DHT22;6539;49.476;8.484;2023-11-22T02:28:46;5.00;99.90
12948;DHT22;6539;49.476;8.484;2023-11-22T02:31:33;4.90;99.90
12948;DHT22;6539;49.476;8.484;2023-11-22T02:34:19;5.00;99.90
12948;DHT22;6539;49.476;8.484;2023-11-22T02:37:08;5.00;99.90
12948;DHT22;6539;49.476;8.484;2023-11-22T02:40:27;4.90;99.90
12948;DHT22;6539;49.476;8.484;2023-11-22T02:43:16;4.90;99.90
12948;DHT22;6539;49.476;8.484;2023-11-22T02:46:03;4.80;99.90
12948;DHT22;6539;49.476;8.484;2023-11-22T02:48:52;4.80;99.90
12948;DHT22;6539;49.476;8.484;2023-11-22T02:51:41;4.80;99.90
12948;DHT22;6539;49.476;8.484;2023-11-22T02:54:27;4.70;99.90
12948;DHT22;6539;49.476;8.484;2023-11-22T02:57:13;4.70;99.90
12948;DHT22;6539;49.476;8.484;2023-11-22T03:00:02;4.70;99.90
12948;DHT22;6539;49.476;8.484;2023-11-22T03:02:55;4.70;99.90
12948;DHT22;6539;49.476;8.484;2023-11-22T03:05:43;4.70;99.90
12948;DHT22;6539;49.476;8.484;2023-11-22T03:08:29;4.70;99.90
12948;DHT22;6539;49.476;8.484;2023-11-22T03:11:20;4.50;99.90
12948;DHT22;6539;49.476;8.484;2023-11-22T03:14:07;4.50;99.90
12948;DHT22;6539;49.476;8.484;2023-11-22T03:16:57;4.60;99.90
12948;DHT22;6539;49.476;8.484;2023-11-22T03:19:45;4.50;99.90
12948;DHT22;6539;49.476;8.484;2023-11-22T03:22:33;4.40;99.90
12948;DHT22;6539;49.476;8.484;2023-11-22T03:25:21;4.40;99.90
12948;DHT22;6539;49.476;8.484;2023-11-22T03:28:10;4.40;99.90
12948;DHT22;6539;49.476;8.484;2023-11-22T03:30:56;4.40;99.90
12948;DHT22;6539;49.476;8.484;2023-11-22T03:33:42;4.40;99.90
12948;DHT22;6539;49.476;8.484;2023-11-22T03:36:28;4.40;99.90
12948;DHT22;6539;49.476;8.484;2023-11-22T03:39:16;4.30;99.90
12948;DHT22;6539;49.476;8.484;2023-11-22T03:42:02;4.20;99.90
12948;DHT22;6539;49.476;8.484;2023-11-22T03:44:49;4.20;99.90
12948;DHT22;6539;49.476;8.484;2023-11-22T03:47:36;4.30;99.90
12948;DHT22;6539;49.476;8.484;2023-11-22T03:50:24;4.30;99.90
12948;DHT22;6539;49.476;8.484;2023-11-22T03:53:13;4.20;99.90
12948;DHT22;6539;49.476;8.484;2023-11-22T03:56:01;4.10;99.90
12948;DHT22;6539;49.476;8.484;2023-11-22T03:58:49;4.00;99.90
12948;DHT22;6539;49.476;8.484;2023-11-22T04:01:35;4.10;99.90
12948;DHT22;6539;49.476;8.484;2023-11-22T04:04:21;4.10;99.90
12948;DHT22;6539;49.476;8.484;2023-11-22T04:07:08;4.00;99.90
12948;DHT22;6539;49.476;8.484;2023-11-22T04:09:57;4.00;99.90
12948;DHT22;6539;49.476;8.484;2023-11-22T04:12:46;4.00;99.90
12948;DHT22;6539;49.476;8.484;2023-11-22T04:15:35;4.00;99.90
12948;DHT22;6539;49.476;8.484;2023-11-22T04:18:24;4.00;99.90
12948;DHT22;6539;49.476;8.484;2023-11-22T04:21:12;4.00;99.90
12948;DHT22;6539;49.476;8.484;2023-11-22T04:23:59;4.00;99.90
12948;DHT22;6539;49.476;8.484;2023-11-22T04:26:48;3.90;99.90
12948;DHT22;6539;49.476;8.484;2023-11-22T04:29:34;3.80;99.90
12948;DHT22;6539;49.476;8.484;2023-11-22T04:32:22;3.80;99.90
12948;DHT22;6539;49.476;8.484;2023-11-22T04:35:11;3.90;99.90
12948;DHT22;6539;49.476;8.484;2023-11-22T04:37:59;3.90;99.90
12948;DHT22;6539;49.476;8.484;2023-11-22T04:40:49;3.90;99.90
12948;DHT22;6539;49.476;8.484;2023-11-22T04:43:38;3.90;99.90
12948;DHT22;6539;49.476;8.484;2023-11-22T04:46:24;3.80;99.90
12948;DHT22;6539;49.476;8.484;2023-11-22T04:49:10;3.80;99.90
12948;DHT22;6539;49.476;8.484;2023-11-22T04:51:56;3.80;99.90
12948;DHT22;6539;49.476;8.484;2023-11-22T04:54:44;3.70;99.90
12948;DHT22;6539;49.476;8.484;2023-11-22T04:57:33;3.70;99.90
12948;DHT22;6539;49.476;8.484;2023-11-22T05:00:20;3.70;99.90
12948;DHT22;6539;49.476;8.484;2023-11-22T05:03:08;3.60;99.90
12948;DHT22;6539;49.476;8.484;2023-11-22T05:05:56;3.70;99.90
12948;DHT22;6539;49.476;8.484;2023-11-22T05:08:42;3.60;99.90
12948;DHT22;6539;49.476;8.484;2023-11-22T05:11:28;3.60;99.90
12948;DHT22;6539;49.476;8.484;2023-11-22T05:14:14;3.60;99.90
12948;DHT22;6539;49.476;8.484;2023-11-22T05:17:04;3.60;99.90
12948;DHT22;6539;49.476;8.484;2023-11-22T05:19:50;3.60;99.90
12948;DHT22;6539;49.476;8.484;2023-11-22T05:22:37;3.70;99.90
12948;DHT22;6539;49.476;8.484;2023-11-22T05:25:23;3.70;99.90
12948;DHT22;6539;49.476;8.484;2023-11-22T05:28:13;3.60;99.90
12948;DHT22;6539;49.476;8.484;2023-11-22T05:30:59;3.60;99.90
12948;DHT22;6539;49.476;8.484;2023-11-22T05:33:48;3.60;99.90
12948;DHT22;6539;49.476;8.484;2023-11-22T05:36:36;3.60;99.90
12948;DHT22;6539;49.476;8.484;2023-11-22T05:39:23;3.60;99.90
12948;DHT22;6539;49.476;8.484;2023-11-22T05:42:10;3.60;99.90
12948;DHT22;6539;49.476;8.484;2023-11-22T05:44:56;3.60;99.90
12948;DHT22;6539;49.476;8.484;2023-11-22T05:47:42;3.40;99.90
12948;DHT22;6539;49.476;8.484;2023-11-22T05:50:28;3.50;99.90
12948;DHT22;6539;49.476;8.484;2023-11-22T05:53:17;3.40;99.90
12948;DHT22;6539;49.476;8.484;2023-11-22T05:56:06;3.40;99.90
12948;DHT22;6539;49.476;8.484;2023-11-22T05:58:54;3.50;99.90
12948;DHT22;6539;49.476;8.484;2023-11-22T06:01:40;3.40;99.90
12948;DHT22;6539;49.476;8.484;2023-11-22T06:04:29;3.40;99.90
12948;DHT22;6539;49.476;8.484;2023-11-22T06:07:16;3.40;99.90
12948;DHT22;6539;49.476;8.484;2023-11-22T06:10:02;3.40;99.90
12948;DHT22;6539;49.476;8.484;2023-11-22T06:12:49;3.40;99.90
12948;DHT22;6539;49.476;8.484;2023-11-22T06:15:37;3.30;99.90
12948;DHT22;6539;49.476;8.484;2023-11-22T06:18:23;3.20;99.90
12948;DHT22;6539;49.476;8.484;2023-11-22T06:21:15;3.20;99.90
12948;DHT22;6539;49.476;8.484;2023-11-22T06:24:05;3.10;99.90
12948;DHT22;6539;49.476;8.484;2023-11-22T06:26:54;3.10;99.90
12948;DHT22;6539;49.476;8.484;2023-11-22T06:29:40;3.10;99.90
12948;DHT22;6539;49.476;8.484;2023-11-22T06:32:30;3.10;99.90
12948;DHT22;6539;49.476;8.484;2023-11-22T06:35:18;3.10;99.90
12948;DHT22;6539;49.476;8.484;2023-11-22T06:38:04;3.00;99.90
12948;DHT22;6539;49.476;8.484;2023-11-22T06:40:52;3.10;99.90
12948;DHT22;6539;49.476;8.484;2023-11-22T06:43:38;3.00;99.90
12948;DHT22;6539;49.476;8.484;2023-11-22T06:46:29;3.00;99.90
12948;DHT22;6539;49.476;8.484;2023-11-22T06:49:15;2.90;99.90
12948;DHT22;6539;49.476;8.484;2023-11-22T06:52:01;2.90;99.90
12948;DHT22;6539;49.476;8.484;2023-11-22T06:54:51;2.90;99.90
12948;DHT22;6539;49.476;8.484;2023-11-22T06:57:38;2.80;99.90
12948;DHT22;6539;49.476;8.484;2023-11-22T07:00:27;2.90;99.90
12948;DHT22;6539;49.476;8.484;2023-11-22T07:03:16;2.90;99.90
12948;DHT22;6539;49.476;8.484;2023-11-22T07:06:08;2.80;99.90
12948;DHT22;6539;49.476;8.484;2023-11-22T07:08:55;2.70;99.90
12948;DHT22;6539;49.476;8.484;2023-11-22T07:11:44;2.80;99.90
12948;DHT22;6539;49.476;8.484;2023-11-22T07:14:32;2.80;99.90
12948;DHT22;6539;49.476;8.484;2023-11-22T07:17:18;2.80;99.90
12948;DHT22;6539;49.476;8.484;2023-11-22T07:20:08;2.80;99.90
12948;DHT22;6539;49.476;8.484;2023-11-22T07:23:01;2.90;99.90
12948;DHT22;6539;49.476;8.484;2023-11-22T07:25:52;2.90;99.90
12948;DHT22;6539;49.476;8.484;2023-11-22T07:28:41;2.90;99.90
12948;DHT22;6539;49.476;8.484;2023-11-22T07:31:30;2.90;99.90
12948;DHT22;6539;49.476;8.484;2023-11-22T07:34:16;2.90;99.90
12948;DHT22;6539;49.476;8.484;2023-11-22T07:37:07;2.90;99.90
12948;DHT22;6539;49.476;8.484;2023-11-22T07:39:56;2.90;99.90
12948;DHT22;6539;49.476;8.484;2023-11-22T07:42:45;2.90;99.90
12948;DHT22;6539;49.476;8.484;2023-11-22T07:45:36;2.90;99.90
12948;DHT22;6539;49.476;8.484;2023-11-22T07:48:22;3.00;99.90
12948;DHT22;6539;49.476;8.484;2023-11-22T07:51:13;2.90;99.90
12948;DHT22;6539;49.476;8.484;2023-11-22T07:54:02;2.90;99.90
12948;DHT22;6539;49.476;8.484;2023-11-22T07:56:51;3.00;99.90
12948;DHT22;6539;49.476;8.484;2023-11-22T07:59:40;3.00;99.90
12948;DHT22;6539;49.476;8.484;2023-11-22T08:02:28;3.00;99.90
12948;DHT22;6539;49.476;8.484;2023-11-22T08:05:15;2.90;99.90
12948;DHT22;6539;49.476;8.484;2023-11-22T08:08:03;2.90;99.90
12948;DHT22;6539;49.476;8.484;2023-11-22T08:10:59;3.00;99.90
12948;DHT22;6539;49.476;8.484;2023-11-22T08:13:45;3.10;99.90
12948;DHT22;6539;49.476;8.484;2023-11-22T08:16:31;3.10;99.90
12948;DHT22;6539;49.476;8.484;2023-11-22T08:19:18;3.20;99.90
12948;DHT22;6539;49.476;8.484;2023-11-22T08:22:04;3.30;99.90
12948;DHT22;6539;49.476;8.484;2023-11-22T08:24:50;3.30;99.90
12948;DHT22;6539;49.476;8.484;2023-11-22T08:27:36;3.30;99.90
12948;DHT22;6539;49.476;8.484;2023-11-22T08:30:25;3.40;99.90
12948;DHT22;6539;49.476;8.484;2023-11-22T08:33:11;3.30;99.90
12948;DHT22;6539;49.476;8.484;2023-11-22T08:35:59;3.40;99.90
12948;DHT22;6539;49.476;8.484;2023-11-22T08:38:49;3.50;99.90
12948;DHT22;6539;49.476;8.484;2023-11-22T08:41:35;3.50;99.90
12948;DHT22;6539;49.476;8.484;2023-11-22T08:44:21;3.60;99.90
12948;DHT22;6539;49.476;8.484;2023-11-22T08:47:08;3.70;99.90
12948;DHT22;6539;49.476;8.484;2023-11-22T08:49:54;3.90;99.90
12948;DHT22;6539;49.476;8.484;2023-11-22T08:52:41;3.90;99.90
12948;DHT22;6539;49.476;8.484;2023-11-22T08:55:30;4.00;99.90
12948;DHT22;6539;49.476;8.484;2023-11-22T08:58:19;4.30;99.90
12948;DHT22;6539;49.476;8.484;2023-11-22T09:01:08;4.30;99.90
12948;DHT22;6539;49.476;8.484;2023-11-22T09:03:56;4.40;99.90
12948;DHT22;6539;49.476;8.484;2023-11-22T09:06:43;4.50;99.90
12948;DHT22;6539;49.476;8.484;2023-11-22T09:09:29;4.50;99.90
12948;DHT22;6539;49.476;8.484;2023-11-22T09:12:17;4.70;99.90
12948;DHT22;6539;49.476;8.484;2023-11-22T09:15:09;5.00;99.90
12948;DHT22;6539;49.476;8.484;2023-11-22T09:17:57;4.90;99.90
12948;DHT22;6539;49.476;8.484;2023-11-22T09:20:45;4.80;99.90
12948;DHT22;6539;49.476;8.484;2023-11-22T09:23:34;4.80;99.90
12948;DHT22;6539;49.476;8.484;2023-11-22T09:26:23;4.70;99.90
12948;DHT22;6539;49.476;8.484;2023-11-22T09:29:10;4.90;99.90
12948;DHT22;6539;49.476;8.484;2023-11-22T09:32:02;5.10;99.90
12948;DHT22;6539;49.476;8.484;2023-11-22T09:34:48;5.50;99.90
12948;DHT22;6539;49.476;8.484;2023-11-22T09:37:35;5.90;99.90
12948;DHT22;6539;49.476;8.484;2023-11-22T09:40:23;5.60;99.90
12948;DHT22;6539;49.476;8.484;2023-11-22T09:43:17;5.70;99.90
12948;DHT22;6539;49.476;8.484;2023-11-22T09:46:06;6.50;99.90
12948;DHT22;6539;49.476;8.484;2023-11-22T09:48:57;6.10;99.90
12948;DHT22;6539;49.476;8.484;2023-11-22T09:51:44;6.50;99.90
12948;DHT22;6539;49.476;8.484;2023-11-22T09:54:39;6.30;99.90
12948;DHT22;6539;49.476;8.484;2023-11-22T09:57:27;5.70;99.90
12948;DHT22;6539;49.476;8.484;2023-11-22T10:00:16;5.70;99.90
12948;DHT22;6539;49.476;8.484;2023-11-22T10:03:07;5.90;99.90
12948;DHT22;6539;49.476;8.484;2023-11-22T10:05:54;6.40;99.90
12948;DHT22;6539;49.476;8.484;2023-11-22T10:08:44;7.00;99.90
12948;DHT22;6539;49.476;8.484;2023-11-22T10:11:35;6.30;99.90
12948;DHT22;6539;49.476;8.484;2023-11-22T10:14:24;6.60;99.90
12948;DHT22;6539;49.476;8.484;2023-11-22T10:17:13;6.90;99.90
12948;DHT22;6539;49.476;8.484;2023-11-22T10:20:01;7.00;99.90
12948;DHT22;6539;49.476;8.484;2023-11-22T10:22:47;7.40;99.90
12948;DHT22;6539;49.476;8.484;2023-11-22T10:25:36;7.60;99.90
12948;DHT22;6539;49.476;8.484;2023-11-22T10:28:26;7.60;99.90
12948;DHT22;6539;49.476;8.484;2023-11-22T10:31:13;8.10;99.90
12948;DHT22;6539;49.476;8.484;2023-11-22T10:34:03;7.90;99.90
12948;DHT22;6539;49.476;8.484;2023-11-22T10:36:51;8.40;99.90
12948;DHT22;6539;49.476;8.484;2023-11-22T10:39:39;8.90;99.90
12948;DHT22;6539;49.476;8.484;2023-11-22T10:42:26;8.50;99.90
12948;DHT22;6539;49.476;8.484;2023-11-22T10:45:17;8.30;99.90
12948;DHT22;6539;49.476;8.484;2023-11-22T10:48:07;7.30;99.90
12948;DHT22;6539;49.476;8.484;2023-11-22T10:51:00;6.80;99.90
12948;DHT22;6539;49.476;8.484;2023-11-22T10:53:51;6.60;99.90
12948;DHT22;6539;49.476;8.484;2023-11-22T10:56:39;5.90;99.90
12948;DHT22;6539;49.476;8.484;2023-11-22T10:59:30;5.60;99.90
12948;DHT22;6539;49.476;8.484;2023-11-22T11:02:21;5.70;99.90
12948;DHT22;6539;49.476;8.484;2023-11-22T11:05:14;5.60;99.90
12948;DHT22;6539;49.476;8.484;2023-11-22T11:08:11;5.30;99.90
12948;DHT22;6539;49.476;8.484;2023-11-22T11:11:00;5.40;99.90
12948;DHT22;6539;49.476;8.484;2023-11-22T11:13:50;5.60;99.90
12948;DHT22;6539;49.476;8.484;2023-11-22T11:16:39;5.30;99.90
12948;DHT22;6539;49.476;8.484;2023-11-22T11:19:36;5.10;99.90
12948;DHT22;6539;49.476;8.484;2023-11-22T11:22:22;5.30;99.90
12948;DHT22;6539;49.476;8.484;2023-11-22T11:25:08;5.30;99.90
12948;DHT22;6539;49.476;8.484;2023-11-22T11:27:57;5.30;99.90
12948;DHT22;6539;49.476;8.484;2023-11-22T11:30:48;5.60;99.90
12948;DHT22;6539;49.476;8.484;2023-11-22T11:33:37;5.70;99.90
12948;DHT22;6539;49.476;8.484;2023-11-22T11:36:40;5.70;99.90
12948;DHT22;6539;49.476;8.484;2023-11-22T11:39:27;5.70;99.90
12948;DHT22;6539;49.476;8.484;2023-11-22T11:42:16;5.70;99.90
12948;DHT22;6539;49.476;8.484;2023-11-22T11:45:05;5.70;99.90
12948;DHT22;6539;49.476;8.484;2023-11-22T11:47:52;5.60;99.90
12948;DHT22;6539;49.476;8.484;2023-11-22T11:50:38;5.60;99.90
12948;DHT22;6539;49.476;8.484;2023-11-22T11:53:27;5.60;99.90
12948;DHT22;6539;49.476;8.484;2023-11-22T11:56:13;5.70;99.90
12948;DHT22;6539;49.476;8.484;2023-11-22T11:59:01;5.70;99.90
12948;DHT22;6539;49.476;8.484;2023-11-22T12:01:53;5.60;99.90
12948;DHT22;6539;49.476;8.484;2023-11-22T12:04:43;5.50;99.90
12948;DHT22;6539;49.476;8.484;2023-11-22T12:07:29;5.70;99.90
12948;DHT22;6539;49.476;8.484;2023-11-22T12:10:18;5.70;99.90
12948;DHT22;6539;49.476;8.484;2023-11-22T12:13:04;5.60;99.90
12948;DHT22;6539;49.476;8.484;2023-11-22T12:15:53;5.60;99.90
12948;DHT22;6539;49.476;8.484;2023-11-22T12:18:40;5.40;99.90
12948;DHT22;6539;49.476;8.484;2023-11-22T12:21:30;5.40;99.90
12948;DHT22;6539;49.476;8.484;2023-11-22T12:24:19;5.40;99.90
12948;DHT22;6539;49.476;8.484;2023-11-22T12:27:05;5.50;99.90
12948;DHT22;6539;49.476;8.484;2023-11-22T12:29:57;5.50;99.90
12948;DHT22;6539;49.476;8.484;2023-11-22T12:32:43;5.40;99.90
12948;DHT22;6539;49.476;8.484;2023-11-22T12:35:30;5.10;99.90
12948;DHT22;6539;49.476;8.484;2023-11-22T12:38:18;5.10;99.90
12948;DHT22;6539;49.476;8.484;2023-11-22T12:41:09;5.10;99.90
12948;DHT22;6539;49.476;8.484;2023-11-22T12:44:06;5.30;99.90
12948;DHT22;6539;49.476;8.484;2023-11-22T12:46:53;5.20;99.90
12948;DHT22;6539;49.476;8.484;2023-11-22T12:49:48;5.40;99.90
12948;DHT22;6539;49.476;8.484;2023-11-22T12:52:35;5.60;99.90
12948;DHT22;6539;49.476;8.484;2023-11-22T12:55:21;5.40;99.90
12948;DHT22;6539;49.476;8.484;2023-11-22T12:58:10;5.40;99.90
12948;DHT22;6539;49.476;8.484;2023-11-22T13:00:57;5.40;99.90
12948;DHT22;6539;49.476;8.484;2023-11-22T13:03:46;5.30;99.90
12948;DHT22;6539;49.476;8.484;2023-11-22T13:06:35;5.40;99.90
12948;DHT22;6539;49.476;8.484;2023-11-22T13:09:22;5.50;99.90
12948;DHT22;6539;49.476;8.484;2023-11-22T13:12:08;5.60;99.90
12948;DHT22;6539;49.476;8.484;2023-11-22T13:14:54;5.50;99.90
12948;DHT22;6539;49.476;8.484;2023-11-22T13:17:40;5.30;99.90
12948;DHT22;6539;49.476;8.484;2023-11-22T13:20:27;5.30;99.90
12948;DHT22;6539;49.476;8.484;2023-11-22T13:23:13;5.30;99.90
12948;DHT22;6539;49.476;8.484;2023-11-22T13:26:02;5.40;99.90
12948;DHT22;6539;49.476;8.484;2023-11-22T13:28:51;5.60;99.90
12948;DHT22;6539;49.476;8.484;2023-11-22T13:31:38;5.70;99.90
12948;DHT22;6539;49.476;8.484;2023-11-22T13:34:25;5.90;99.90
12948;DHT22;6539;49.476;8.484;2023-11-22T13:37:13;5.80;99.90
12948;DHT22;6539;49.476;8.484;2023-11-22T13:40:04;5.40;99.90
12948;DHT22;6539;49.476;8.484;2023-11-22T13:43:00;5.40;99.90
12948;DHT22;6539;49.476;8.484;2023-11-22T13:45:46;5.40;99.90
12948;DHT22;6539;49.476;8.484;2023-11-22T13:48:32;5.20;99.90
12948;DHT22;6539;49.476;8.484;2023-11-22T13:51:20;5.40;99.90
12948;DHT22;6539;49.476;8.484;2023-11-22T13:54:08;5.30;99.90
12948;DHT22;6539;49.476;8.484;2023-11-22T13:56:57;5.30;99.90
12948;DHT22;6539;49.476;8.484;2023-11-22T13:59:45;5.40;99.90
12948;DHT22;6539;49.476;8.484;2023-11-22T14:02:31;5.40;99.90
12948;DHT22;6539;49.476;8.484;2023-11-22T14:05:20;5.40;99.90
12948;DHT22;6539;49.476;8.484;2023-11-22T14:08:09;5.40;99.90
12948;DHT22;6539;49.476;8.484;2023-11-22T14:10:55;5.40;99.90
12948;DHT22;6539;49.476;8.484;2023-11-22T14:13:44;5.60;99.90
12948;DHT22;6539;49.476;8.484;2023-11-22T14:16:30;5.70;99.90
12948;DHT22;6539;49.476;8.484;2023-11-22T14:19:16;5.60;99.90
12948;DHT22;6539;49.476;8.484;2023-11-22T14:22:05;5.60;99.90
12948;DHT22;6539;49.476;8.484;2023-11-22T14:24:53;5.60;99.90
12948;DHT22;6539;49.476;8.484;2023-11-22T14:27:45;5.50;99.90
12948;DHT22;6539;49.476;8.484;2023-11-22T14:30:35;5.40;99.90
12948;DHT22;6539;49.476;8.484;2023-11-22T14:33:22;5.40;99.90
12948;DHT22;6539;49.476;8.484;2023-11-22T14:36:08;5.40;99.90
12948;DHT22;6539;49.476;8.484;2023-11-22T14:38:57;5.40;99.90
12948;DHT22;6539;49.476;8.484;2023-11-22T14:41:46;5.50;99.90
12948;DHT22;6539;49.476;8.484;2023-11-22T14:44:39;5.50;99.90
12948;DHT22;6539;49.476;8.484;2023-11-22T14:47:27;5.30;99.90
12948;DHT22;6539;49.476;8.484;2023-11-22T14:50:16;5.30;99.90
12948;DHT22;6539;49.476;8.484;2023-11-22T14:53:02;5.30;99.90
12948;DHT22;6539;49.476;8.484;2023-11-22T14:55:49;5.20;99.90
12948;DHT22;6539;49.476;8.484;2023-11-22T14:58:35;5.20;99.90
12948;DHT22;6539;49.476;8.484;2023-11-22T15:01:21;5.20;99.90
12948;DHT22;6539;49.476;8.484;2023-11-22T15:04:09;5.30;99.90
12948;DHT22;6539;49.476;8.484;2023-11-22T15:06:56;5.20;99.90
12948;DHT22;6539;49.476;8.484;2023-11-22T15:09:45;5.10;99.90
12948;DHT22;6539;49.476;8.484;2023-11-22T15:12:36;5.10;99.90
12948;DHT22;6539;49.476;8.484;2023-11-22T15:15:34;5.20;99.90
12948;DHT22;6539;49.476;8.484;2023-11-22T15:18:20;5.10;99.90
12948;DHT22;6539;49.476;8.484;2023-11-22T15:21:07;5.10;99.90
12948;DHT22;6539;49.476;8.484;2023-11-22T15:23:55;5.00;99.90
12948;DHT22;6539;49.476;8.484;2023-11-22T15:26:41;4.80;99.90
12948;DHT22;6539;49.476;8.484;2023-11-22T15:29:27;4.40;99.90
12948;DHT22;6539;49.476;8.484;2023-11-22T15:32:13;4.50;99.90
12948;DHT22;6539;49.476;8.484;2023-11-22T15:35:00;4.60;99.90
12948;DHT22;6539;49.476;8.484;2023-11-22T15:37:46;4.50;99.90
12948;DHT22;6539;49.476;8.484;2023-11-22T15:40:35;4.40;99.90
12948;DHT22;6539;49.476;8.484;2023-11-22T15:43:23;4.50;99.90
12948;DHT22;6539;49.476;8.484;2023-11-22T15:46:15;4.60;99.90
12948;DHT22;6539;49.476;8.484;2023-11-22T15:49:04;4.50;99.90
12948;DHT22;6539;49.476;8.484;2023-11-22T15:51:50;4.50;99.90
12948;DHT22;6539;49.476;8.484;2023-11-22T15:54:36;4.30;99.90
12948;DHT22;6539;49.476;8.484;2023-11-22T15:57:23;4.40;99.90
12948;DHT22;6539;49.476;8.484;2023-11-22T16:00:12;4.30;99.90
12948;DHT22;6539;49.476;8.484;2023-11-22T16:03:01;4.40;99.90
12948;DHT22;6539;49.476;8.484;2023-11-22T16:05:53;4.40;99.90
12948;DHT22;6539;49.476;8.484;2023-11-22T16:08:39;4.40;99.90
12948;DHT22;6539;49.476;8.484;2023-11-22T16:11:27;4.30;99.90
12948;DHT22;6539;49.476;8.484;2023-11-22T16:14:13;4.40;99.90
12948;DHT22;6539;49.476;8.484;2023-11-22T16:17:02;4.30;99.90
12948;DHT22;6539;49.476;8.484;2023-11-22T16:19:50;4.20;99.90
12948;DHT22;6539;49.476;8.484;2023-11-22T16:22:40;4.40;99.90
12948;DHT22;6539;49.476;8.484;2023-11-22T16:25:31;4.30;99.90
12948;DHT22;6539;49.476;8.484;2023-11-22T16:28:21;4.30;99.90
12948;DHT22;6539;49.476;8.484;2023-11-22T16:31:07;4.20;99.90
12948;DHT22;6539;49.476;8.484;2023-11-22T16:33:55;4.30;99.90
12948;DHT22;6539;49.476;8.484;2023-11-22T16:36:44;4.20;99.90
12948;DHT22;6539;49.476;8.484;2023-11-22T16:39:30;4.20;99.90
12948;DHT22;6539;49.476;8.484;2023-11-22T16:42:22;4.20;99.90
12948;DHT22;6539;49.476;8.484;2023-11-22T16:45:10;4.20;99.90
12948;DHT22;6539;49.476;8.484;2023-11-22T16:47:57;4.30;99.90
12948;DHT22;6539;49.476;8.484;2023-11-22T16:50:45;4.40;99.90
12948;DHT22;6539;49.476;8.484;2023-11-22T16:53:31;4.30;99.90
12948;DHT22;6539;49.476;8.484;2023-11-22T16:56:17;4.20;99.90
12948;DHT22;6539;49.476;8.484;2023-11-22T16:59:04;4.20;99.90
12948;DHT22;6539;49.476;8.484;2023-11-22T17:01:52;4.20;99.90
12948;DHT22;6539;49.476;8.484;2023-11-22T17:04:42;4.20;99.90
12948;DHT22;6539;49.476;8.484;2023-11-22T17:07:28;4.30;99.90
12948;DHT22;6539;49.476;8.484;2023-11-22T17:10:14;4.30;99.90
12948;DHT22;6539;49.476;8.484;2023-11-22T17:13:01;4.30;99.90
12948;DHT22;6539;49.476;8.484;2023-11-22T17:15:47;4.20;99.90
12948;DHT22;6539;49.476;8.484;2023-11-22T17:18:35;4.30;99.90
12948;DHT22;6539;49.476;8.484;2023-11-22T17:21:21;4.20;99.90
12948;DHT22;6539;49.476;8.484;2023-11-22T17:24:07;4.10;99.90
12948;DHT22;6539;49.476;8.484;2023-11-22T17:26:54;3.90;99.90
12948;DHT22;6539;49.476;8.484;2023-11-22T17:29:43;3.90;99.90
12948;DHT22;6539;49.476;8.484;2023-11-22T17:32:29;3.90;99.90
12948;DHT22;6539;49.476;8.484;2023-11-22T17:35:18;4.20;99.90
12948;DHT22;6539;49.476;8.484;2023-11-22T17:38:06;4.00;99.90
12948;DHT22;6539;49.476;8.484;2023-11-22T17:40:55;3.70;99.90
12948;DHT22;6539;49.476;8.484;2023-11-22T17:43:43;3.70;99.90
12948;DHT22;6539;49.476;8.484;2023-11-22T17:46:34;3.80;99.90
12948;DHT22;6539;49.476;8.484;2023-11-22T17:49:22;4.00;99.90
12948;DHT22;6539;49.476;8.484;2023-11-22T17:52:08;4.00;99.90
12948;DHT22;6539;49.476;8.484;2023-11-22T17:54:54;4.00;99.90
12948;DHT22;6539;49.476;8.484;2023-11-22T17:57:42;3.90;99.90
12948;DHT22;6539;49.476;8.484;2023-11-22T18:00:28;3.70;99.90
12948;DHT22;6539;49.476;8.484;2023-11-22T18:03:14;3.60;99.90
12948;DHT22;6539;49.476;8.484;2023-11-22T18:06:01;3.60;99.90
12948;DHT22;6539;49.476;8.484;2023-11-22T18:08:49;3.60;99.90
12948;DHT22;6539;49.476;8.484;2023-11-22T18:11:35;3.60;99.90
12948;DHT22;6539;49.476;8.484;2023-11-22T18:14:25;3.90;99.90
12948;DHT22;6539;49.476;8.484;2023-11-22T18:17:12;4.00;99.90